sensor_id;sensor_type;location;lat;lon;timestamp;temperature;humidity
32400;DHT22;45045;45.440;9.178;2023-04-16T00:00:38;19.30;75.10
32400;DHT22;45045;45.440;9.178;2023-04-16T00:03:04;19.30;81.70
32400;DHT22;45045;45.440;9.178;2023-04-16T00:05:29;19.40;82.00
32400;DHT22;45045;45.440;9.178;2023-04-16T00:07:54;19.40;78.10
32400;DHT22;45045;45.440;9.178;2023-04-16T00:10:20;19.30;80.60
32400;DHT22;45045;45.440;9.178;2023-04-16T00:12:45;19.00;75.30
32400;DHT22;45045;45.440;9.178;2023-04-16T00:15:11;19.10;79.90
32400;DHT22;45045;45.440;9.178;2023-04-16T00:17:36;19.20;80.80
32400;DHT22;45045;45.440;9.178;2023-04-16T00:20:02;19.10;80.50
32400;DHT22;45045;45.440;9.178;2023-04-16T00:22:29;19.20;78.60
32400;DHT22;45045;45.440;9.178;2023-04-16T00:24:54;19.00;75.00
32400;DHT22;45045;45.440;9.178;2023-04-16T00:27:20;18.90;75.90
32400;DHT22;45045;45.440;9.178;2023-04-16T00:29:45;18.90;77.40
32400;DHT22;45045;45.440;9.178;2023-04-16T00:32:11;19.00;80.40
32400;DHT22;45045;45.440;9.178;2023-04-16T00:34:36;18.80;74.50
32400;DHT22;45045;45.440;9.178;2023-04-16T00:37:02;18.50;73.90
32400;DHT22;45045;45.440;9.178;2023-04-16T00:39:27;18.60;78.50
32400;DHT22;45045;45.440;9.178;2023-04-16T00:41:53;18.50;75.90
32400;DHT22;45045;45.440;9.178;2023-04-16T00:44:18;18.40;78.30
32400;DHT22;45045;45.440;9.178;2023-04-16T00:46:44;18.60;77.90
32400;DHT22;45045;45.440;9.178;2023-04-16T00:49:10;18.70;75.40
32400;DHT22;45045;45.440;9.178;2023-04-16T00:51:35;18.60;77.40
32400;DHT22;45045;45.440;9.178;2023-04-16T00:54:01;18.20;74.00
32400;DHT22;45045;45.440;9.178;2023-04-16T00:56:27;18.20;76.60
32400;DHT22;45045;45.440;9.178;2023-04-16T00:58:56;18.50;76.30
32400;DHT22;45045;45.440;9.178;2023-04-16T01:01:21;18.60;77.80
32400;DHT22;45045;45.440;9.178;2023-04-16T01:03:47;18.80;78.40
32400;DHT22;45045;45.440;9.178;2023-04-16T01:06:13;18.90;78.30
32400;DHT22;45045;45.440;9.178;2023-04-16T01:08:39;19.00;77.20
32400;DHT22;45045;45.440;9.178;2023-04-16T01:11:04;18.90;77.60
32400;DHT22;45045;45.440;9.178;2023-04-16T01:13:31;18.80;77.20
32400;DHT22;45045;45.440;9.178;2023-04-16T01:15:56;18.90;78.60
32400;DHT22;45045;45.440;9.178;2023-04-16T01:18:22;18.90;77.30
32400;DHT22;45045;45.440;9.178;2023-04-16T01:20:48;19.00;79.70
32400;DHT22;45045;45.440;9.178;2023-04-16T01:23:14;19.10;79.60
32400;DHT22;45045;45.440;9.178;2023-04-16T01:25:39;19.10;79.90
32400;DHT22;45045;45.440;9.178;2023-04-16T01:28:05;19.10;80.50
32400;DHT22;45045;45.440;9.178;2023-04-16T01:30:31;19.20;80.50
32400;DHT22;45045;45.440;9.178;2023-04-16T01:32:56;19.20;80.60
32400;DHT22;45045;45.440;9.178;2023-04-16T01:35:25;19.20;80.80
32400;DHT22;45045;45.440;9.178;2023-04-16T01:37:50;19.30;80.90
32400;DHT22;45045;45.440;9.178;2023-04-16T01:40:16;19.30;80.70
32400;DHT22;45045;45.440;9.178;2023-04-16T01:42:42;19.30;80.90
32400;DHT22;45045;45.440;9.178;2023-04-16T01:45:08;19.30;80.90
32400;DHT22;45045;45.440;9.178;2023-04-16T01:47:33;19.30;80.90
32400;DHT22;45045;45.440;9.178;2023-04-16T01:49:59;19.30;80.90
32400;DHT22;45045;45.440;9.178;2023-04-16T01:52:25;19.30;80.90
32400;DHT22;45045;45.440;9.178;2023-04-16T01:54:50;19.30;81.10
32400;DHT22;45045;45.440;9.178;2023-04-16T01:57:15;19.30;80.90
32400;DHT22;45045;45.440;9.178;2023-04-16T01:59:41;19.30;81.00
32400;DHT22;45045;45.440;9.178;2023-04-16T02:02:10;19.30;81.20
32400;DHT22;45045;45.440;9.178;2023-04-16T02:04:39;19.30;81.10
32400;DHT22;45045;45.440;9.178;2023-04-16T02:07:05;19.20;81.10
32400;DHT22;45045;45.440;9.178;2023-04-16T02:09:34;19.30;81.20
32400;DHT22;45045;45.440;9.178;2023-04-16T02:12:00;19.30;81.20
32400;DHT22;45045;45.440;9.178;2023-04-16T02:14:29;19.30;82.20
32400;DHT22;45045;45.440;9.178;2023-04-16T02:16:55;19.30;81.60
32400;DHT22;45045;45.440;9.178;2023-04-16T02:19:20;19.20;81.70
32400;DHT22;45045;45.440;9.178;2023-04-16T02:21:46;19.20;81.60
32400;DHT22;45045;45.440;9.178;2023-04-16T02:24:12;19.20;81.70
32400;DHT22;45045;45.440;9.178;2023-04-16T02:26:38;19.20;81.80
32400;DHT22;45045;45.440;9.178;2023-04-16T02:29:03;19.20;81.40
32400;DHT22;45045;45.440;9.178;2023-04-16T02:31:29;19.10;81.80
32400;DHT22;45045;45.440;9.178;2023-04-16T02:33:54;19.20;82.00
32400;DHT22;45045;45.440;9.178;2023-04-16T02:36:20;19.20;82.20
32400;DHT22;45045;45.440;9.178;2023-04-16T02:38:45;19.20;82.30
32400;DHT22;45045;45.440;9.178;2023-04-16T02:41:11;19.10;82.20
32400;DHT22;45045;45.440;9.178;2023-04-16T02:43:37;19.10;82.30
32400;DHT22;45045;45.440;9.178;2023-04-16T02:46:02;19.10;82.40
32400;DHT22;45045;45.440;9.178;2023-04-16T02:48:28;19.10;82.40
32400;DHT22;45045;45.440;9.178;2023-04-16T02:50:53;19.10;82.40
32400;DHT22;45045;45.440;9.178;2023-04-16T02:53:19;19.10;82.30
32400;DHT22;45045;45.440;9.178;2023-04-16T02:55:51;19.10;82.30
32400;DHT22;45045;45.440;9.178;2023-04-16T02:58:19;19.10;82.50
32400;DHT22;45045;45.440;9.178;2023-04-16T03:00:45;19.10;82.50
32400;DHT22;45045;45.440;9.178;2023-04-16T03:03:11;19.10;82.50
32400;DHT22;45045;45.440;9.178;2023-04-16T03:05:36;19.10;82.60
32400;DHT22;45045;45.440;9.178;2023-04-16T03:08:02;19.10;82.60
32400;DHT22;45045;45.440;9.178;2023-04-16T03:10:28;19.10;82.70
32400;DHT22;45045;45.440;9.178;2023-04-16T03:12:53;19.10;82.70
32400;DHT22;45045;45.440;9.178;2023-04-16T03:15:19;19.10;82.80
32400;DHT22;45045;45.440;9.178;2023-04-16T03:17:44;19.10;82.70
32400;DHT22;45045;45.440;9.178;2023-04-16T03:20:10;19.10;82.80
32400;DHT22;45045;45.440;9.178;2023-04-16T03:22:36;19.10;82.80
32400;DHT22;45045;45.440;9.178;2023-04-16T03:25:02;19.00;82.90
32400;DHT22;45045;45.440;9.178;2023-04-16T03:27:28;19.00;83.00
32400;DHT22;45045;45.440;9.178;2023-04-16T03:29:53;19.00;83.10
32400;DHT22;45045;45.440;9.178;2023-04-16T03:32:19;19.00;83.00
32400;DHT22;45045;45.440;9.178;2023-04-16T03:34:44;19.00;83.10
32400;DHT22;45045;45.440;9.178;2023-04-16T03:37:10;19.00;83.10
32400;DHT22;45045;45.440;9.178;2023-04-16T03:39:38;18.90;83.20
32400;DHT22;45045;45.440;9.178;2023-04-16T03:42:04;19.00;83.30
32400;DHT22;45045;45.440;9.178;2023-04-16T03:44:29;18.90;83.30
32400;DHT22;45045;45.440;9.178;2023-04-16T03:46:55;19.00;83.30
32400;DHT22;45045;45.440;9.178;2023-04-16T03:49:20;19.00;83.30
32400;DHT22;45045;45.440;9.178;2023-04-16T03:51:46;18.90;83.30
32400;DHT22;45045;45.440;9.178;2023-04-16T03:54:11;18.90;83.40
32400;DHT22;45045;45.440;9.178;2023-04-16T03:56:38;18.90;83.50
32400;DHT22;45045;45.440;9.178;2023-04-16T03:59:04;18.90;83.50
32400;DHT22;45045;45.440;9.178;2023-04-16T04:01:30;18.90;83.60
32400;DHT22;45045;45.440;9.178;2023-04-16T04:03:55;18.90;83.80
32400;DHT22;45045;45.440;9.178;2023-04-16T04:06:21;18.80;83.70
32400;DHT22;45045;45.440;9.178;2023-04-16T04:08:46;18.80;83.80
32400;DHT22;45045;45.440;9.178;2023-04-16T04:11:12;18.80;83.90
32400;DHT22;45045;45.440;9.178;2023-04-16T04:13:37;18.80;84.00
32400;DHT22;45045;45.440;9.178;2023-04-16T04:16:03;18.80;84.10
32400;DHT22;45045;45.440;9.178;2023-04-16T04:18:29;18.80;84.10
32400;DHT22;45045;45.440;9.178;2023-04-16T04:20:54;18.80;84.10
32400;DHT22;45045;45.440;9.178;2023-04-16T04:23:20;18.80;84.10
32400;DHT22;45045;45.440;9.178;2023-04-16T04:25:45;18.80;84.40
32400;DHT22;45045;45.440;9.178;2023-04-16T04:28:11;18.80;84.40
32400;DHT22;45045;45.440;9.178;2023-04-16T04:30:36;18.80;84.40
32400;DHT22;45045;45.440;9.178;2023-04-16T04:33:02;18.70;84.60
32400;DHT22;45045;45.440;9.178;2023-04-16T04:35:27;18.70;84.50
32400;DHT22;45045;45.440;9.178;2023-04-16T04:37:53;18.70;84.70
32400;DHT22;45045;45.440;9.178;2023-04-16T04:40:18;18.70;84.70
32400;DHT22;45045;45.440;9.178;2023-04-16T04:42:44;18.70;84.90
32400;DHT22;45045;45.440;9.178;2023-04-16T04:45:10;18.70;84.80
32400;DHT22;45045;45.440;9.178;2023-04-16T04:47:35;18.70;84.80
32400;DHT22;45045;45.440;9.178;2023-04-16T04:50:01;18.70;84.80
32400;DHT22;45045;45.440;9.178;2023-04-16T04:52:26;18.70;84.90
32400;DHT22;45045;45.440;9.178;2023-04-16T04:54:52;18.70;84.90
32400;DHT22;45045;45.440;9.178;2023-04-16T04:57:17;18.60;84.90
32400;DHT22;45045;45.440;9.178;2023-04-16T04:59:43;18.70;85.10
32400;DHT22;45045;45.440;9.178;2023-04-16T05:02:08;18.70;85.10
32400;DHT22;45045;45.440;9.178;2023-04-16T05:04:34;18.60;86.00
32400;DHT22;45045;45.440;9.178;2023-04-16T05:06:59;18.60;85.30
32400;DHT22;45045;45.440;9.178;2023-04-16T05:09:26;18.60;86.00
32400;DHT22;45045;45.440;9.178;2023-04-16T05:11:52;18.60;85.30
32400;DHT22;45045;45.440;9.178;2023-04-16T05:14:17;18.60;85.40
32400;DHT22;45045;45.440;9.178;2023-04-16T05:16:43;18.60;85.60
32400;DHT22;45045;45.440;9.178;2023-04-16T05:19:09;18.60;85.60
32400;DHT22;45045;45.440;9.178;2023-04-16T05:21:34;18.60;85.60
32400;DHT22;45045;45.440;9.178;2023-04-16T05:24:00;18.60;85.70
32400;DHT22;45045;45.440;9.178;2023-04-16T05:26:25;18.60;85.60
32400;DHT22;45045;45.440;9.178;2023-04-16T05:28:51;18.60;85.60
32400;DHT22;45045;45.440;9.178;2023-04-16T05:31:16;18.60;85.70
32400;DHT22;45045;45.440;9.178;2023-04-16T05:33:42;18.60;85.80
32400;DHT22;45045;45.440;9.178;2023-04-16T05:36:07;18.50;85.70
32400;DHT22;45045;45.440;9.178;2023-04-16T05:38:33;18.50;85.60
32400;DHT22;45045;45.440;9.178;2023-04-16T05:40:58;18.50;85.50
32400;DHT22;45045;45.440;9.178;2023-04-16T05:43:24;18.40;84.70
32400;DHT22;45045;45.440;9.178;2023-04-16T05:45:49;18.20;82.00
32400;DHT22;45045;45.440;9.178;2023-04-16T05:48:15;18.20;85.40
32400;DHT22;45045;45.440;9.178;2023-04-16T05:50:40;18.20;84.00
32400;DHT22;45045;45.440;9.178;2023-04-16T05:53:06;18.10;83.40
32400;DHT22;45045;45.440;9.178;2023-04-16T05:55:33;18.10;85.10
32400;DHT22;45045;45.440;9.178;2023-04-16T05:58:00;18.20;86.00
32400;DHT22;45045;45.440;9.178;2023-04-16T06:00:28;18.30;85.90
32400;DHT22;45045;45.440;9.178;2023-04-16T06:02:54;18.30;86.00
32400;DHT22;45045;45.440;9.178;2023-04-16T06:05:20;18.30;85.80
32400;DHT22;45045;45.440;9.178;2023-04-16T06:07:45;18.40;85.90
32400;DHT22;45045;45.440;9.178;2023-04-16T06:10:11;18.30;85.60
32400;DHT22;45045;45.440;9.178;2023-04-16T06:12:36;18.30;85.80
32400;DHT22;45045;45.440;9.178;2023-04-16T06:15:02;18.30;84.30
32400;DHT22;45045;45.440;9.178;2023-04-16T06:17:28;18.20;82.70
32400;DHT22;45045;45.440;9.178;2023-04-16T06:19:53;18.20;85.20
32400;DHT22;45045;45.440;9.178;2023-04-16T06:22:18;18.30;85.30
32400;DHT22;45045;45.440;9.178;2023-04-16T06:24:44;18.20;85.10
32400;DHT22;45045;45.440;9.178;2023-04-16T06:27:10;18.20;82.20
32400;DHT22;45045;45.440;9.178;2023-04-16T06:29:35;17.80;79.10
32400;DHT22;45045;45.440;9.178;2023-04-16T06:32:01;17.80;83.30
32400;DHT22;45045;45.440;9.178;2023-04-16T06:34:27;17.90;82.80
32400;DHT22;45045;45.440;9.178;2023-04-16T06:36:53;17.70;79.80
32400;DHT22;45045;45.440;9.178;2023-04-16T06:39:18;17.70;81.90
32400;DHT22;45045;45.440;9.178;2023-04-16T06:41:46;17.80;83.30
32400;DHT22;45045;45.440;9.178;2023-04-16T06:44:12;17.60;81.20
32400;DHT22;45045;45.440;9.178;2023-04-16T06:46:39;17.70;83.50
32400;DHT22;45045;45.440;9.178;2023-04-16T06:49:05;17.70;80.80
32400;DHT22;45045;45.440;9.178;2023-04-16T06:51:30;17.90;83.50
32400;DHT22;45045;45.440;9.178;2023-04-16T06:53:56;17.70;81.30
32400;DHT22;45045;45.440;9.178;2023-04-16T06:56:21;17.60;82.00
32400;DHT22;45045;45.440;9.178;2023-04-16T06:58:47;17.40;83.60
32400;DHT22;45045;45.440;9.178;2023-04-16T07:01:12;17.50;83.80
32400;DHT22;45045;45.440;9.178;2023-04-16T07:03:38;17.40;83.20
32400;DHT22;45045;45.440;9.178;2023-04-16T07:06:04;17.40;83.90
32400;DHT22;45045;45.440;9.178;2023-04-16T07:08:29;17.60;83.70
32400;DHT22;45045;45.440;9.178;2023-04-16T07:10:55;17.80;83.80
32400;DHT22;45045;45.440;9.178;2023-04-16T07:13:20;17.80;83.00
32400;DHT22;45045;45.440;9.178;2023-04-16T07:15:46;17.80;83.40
32400;DHT22;45045;45.440;9.178;2023-04-16T07:18:12;18.10;83.70
32400;DHT22;45045;45.440;9.178;2023-04-16T07:20:37;18.00;82.40
32400;DHT22;45045;45.440;9.178;2023-04-16T07:23:03;17.90;82.20
32400;DHT22;45045;45.440;9.178;2023-04-16T07:25:28;17.80;83.00
32400;DHT22;45045;45.440;9.178;2023-04-16T07:27:54;17.90;83.50
32400;DHT22;45045;45.440;9.178;2023-04-16T07:30:19;18.00;84.00
32400;DHT22;45045;45.440;9.178;2023-04-16T07:32:45;18.00;83.30
32400;DHT22;45045;45.440;9.178;2023-04-16T07:35:10;18.00;83.90
32400;DHT22;45045;45.440;9.178;2023-04-16T07:37:36;17.80;83.90
32400;DHT22;45045;45.440;9.178;2023-04-16T07:40:01;17.90;83.90
32400;DHT22;45045;45.440;9.178;2023-04-16T07:42:27;17.80;83.50
32400;DHT22;45045;45.440;9.178;2023-04-16T07:44:53;17.90;83.90
32400;DHT22;45045;45.440;9.178;2023-04-16T07:47:19;17.90;84.20
32400;DHT22;45045;45.440;9.178;2023-04-16T07:49:45;17.80;84.20
32400;DHT22;45045;45.440;9.178;2023-04-16T07:52:10;17.90;84.60
32400;DHT22;45045;45.440;9.178;2023-04-16T07:54:36;18.10;84.40
32400;DHT22;45045;45.440;9.178;2023-04-16T07:57:01;18.10;84.60
32400;DHT22;45045;45.440;9.178;2023-04-16T07:59:27;18.20;84.50
32400;DHT22;45045;45.440;9.178;2023-04-16T08:01:52;18.20;84.60
32400;DHT22;45045;45.440;9.178;2023-04-16T08:04:18;18.30;84.60
32400;DHT22;45045;45.440;9.178;2023-04-16T08:06:49;18.40;83.90
32400;DHT22;45045;45.440;9.178;2023-04-16T08:09:15;18.40;84.40
32400;DHT22;45045;45.440;9.178;2023-04-16T08:11:41;18.50;83.90
32400;DHT22;45045;45.440;9.178;2023-04-16T08:14:06;18.60;83.80
32400;DHT22;45045;45.440;9.178;2023-04-16T08:16:32;18.70;83.70
32400;DHT22;45045;45.440;9.178;2023-04-16T08:18:57;18.80;83.30
32400;DHT22;45045;45.440;9.178;2023-04-16T08:21:25;18.80;83.30
32400;DHT22;45045;45.440;9.178;2023-04-16T08:23:52;18.70;83.30
32400;DHT22;45045;45.440;9.178;2023-04-16T08:26:17;18.80;83.90
32400;DHT22;45045;45.440;9.178;2023-04-16T08:28:43;18.70;83.80
32400;DHT22;45045;45.440;9.178;2023-04-16T08:31:08;18.60;84.00
32400;DHT22;45045;45.440;9.178;2023-04-16T08:33:34;18.60;84.20
32400;DHT22;45045;45.440;9.178;2023-04-16T08:36:00;18.70;84.90
32400;DHT22;45045;45.440;9.178;2023-04-16T08:38:25;18.80;84.40
32400;DHT22;45045;45.440;9.178;2023-04-16T08:40:51;18.80;84.00
32400;DHT22;45045;45.440;9.178;2023-04-16T08:43:18;18.70;84.80
32400;DHT22;45045;45.440;9.178;2023-04-16T08:45:46;18.80;85.30
32400;DHT22;45045;45.440;9.178;2023-04-16T08:48:12;18.90;84.70
32400;DHT22;45045;45.440;9.178;2023-04-16T08:50:39;19.00;84.50
32400;DHT22;45045;45.440;9.178;2023-04-16T08:53:05;19.10;83.80
32400;DHT22;45045;45.440;9.178;2023-04-16T08:55:35;19.10;83.50
32400;DHT22;45045;45.440;9.178;2023-04-16T08:58:14;19.10;82.90
32400;DHT22;45045;45.440;9.178;2023-04-16T09:00:39;19.10;82.30
32400;DHT22;45045;45.440;9.178;2023-04-16T09:03:06;19.10;82.20
32400;DHT22;45045;45.440;9.178;2023-04-16T09:05:32;19.20;81.80
32400;DHT22;45045;45.440;9.178;2023-04-16T09:07:58;19.30;82.50
32400;DHT22;45045;45.440;9.178;2023-04-16T09:10:26;19.40;82.30
32400;DHT22;45045;45.440;9.178;2023-04-16T09:12:55;19.40;81.10
32400;DHT22;45045;45.440;9.178;2023-04-16T09:15:21;19.40;81.80
32400;DHT22;45045;45.440;9.178;2023-04-16T09:17:47;19.40;80.00
32400;DHT22;45045;45.440;9.178;2023-04-16T09:20:13;19.50;80.50
32400;DHT22;45045;45.440;9.178;2023-04-16T09:22:38;19.60;79.40
32400;DHT22;45045;45.440;9.178;2023-04-16T09:25:05;19.60;78.90
32400;DHT22;45045;45.440;9.178;2023-04-16T09:27:30;19.50;79.40
32400;DHT22;45045;45.440;9.178;2023-04-16T09:29:56;19.60;80.10
32400;DHT22;45045;45.440;9.178;2023-04-16T09:32:25;19.70;79.60
32400;DHT22;45045;45.440;9.178;2023-04-16T09:34:57;19.60;79.40
32400;DHT22;45045;45.440;9.178;2023-04-16T09:37:23;19.70;79.90
32400;DHT22;45045;45.440;9.178;2023-04-16T09:40:07;19.70;80.00
32400;DHT22;45045;45.440;9.178;2023-04-16T09:42:34;19.70;79.60
32400;DHT22;45045;45.440;9.178;2023-04-16T09:45:00;19.70;80.10
32400;DHT22;45045;45.440;9.178;2023-04-16T09:47:37;19.90;80.20
32400;DHT22;45045;45.440;9.178;2023-04-16T09:50:03;20.00;78.70
32400;DHT22;45045;45.440;9.178;2023-04-16T09:52:28;20.10;79.80
32400;DHT22;45045;45.440;9.178;2023-04-16T09:54:54;20.10;79.30
32400;DHT22;45045;45.440;9.178;2023-04-16T09:57:20;20.00;80.40
32400;DHT22;45045;45.440;9.178;2023-04-16T09:59:47;20.10;80.40
32400;DHT22;45045;45.440;9.178;2023-04-16T10:02:13;20.10;81.10
32400;DHT22;45045;45.440;9.178;2023-04-16T10:04:51;20.10;80.60
32400;DHT22;45045;45.440;9.178;2023-04-16T10:07:17;20.10;81.40
32400;DHT22;45045;45.440;9.178;2023-04-16T10:09:42;20.10;80.80
32400;DHT22;45045;45.440;9.178;2023-04-16T10:12:08;20.20;80.80
32400;DHT22;45045;45.440;9.178;2023-04-16T10:14:34;20.30;80.60
32400;DHT22;45045;45.440;9.178;2023-04-16T10:16:59;20.50;80.00
32400;DHT22;45045;45.440;9.178;2023-04-16T10:19:28;20.50;79.50
32400;DHT22;45045;45.440;9.178;2023-04-16T10:21:57;20.50;78.80
32400;DHT22;45045;45.440;9.178;2023-04-16T10:24:23;20.70;77.50
32400;DHT22;45045;45.440;9.178;2023-04-16T10:26:49;20.70;77.40
32400;DHT22;45045;45.440;9.178;2023-04-16T10:29:16;20.70;77.10
32400;DHT22;45045;45.440;9.178;2023-04-16T10:31:41;20.80;76.60
32400;DHT22;45045;45.440;9.178;2023-04-16T10:34:07;20.90;76.40
32400;DHT22;45045;45.440;9.178;2023-04-16T10:36:36;21.00;75.90
32400;DHT22;45045;45.440;9.178;2023-04-16T10:39:02;21.10;76.20
32400;DHT22;45045;45.440;9.178;2023-04-16T10:41:28;21.10;75.10
32400;DHT22;45045;45.440;9.178;2023-04-16T10:44:29;21.10;75.50
32400;DHT22;45045;45.440;9.178;2023-04-16T10:46:48;21.00;76.20
32400;DHT22;45045;45.440;9.178;2023-04-16T10:49:14;21.00;76.00
32400;DHT22;45045;45.440;9.178;2023-04-16T10:51:40;21.30;75.70
32400;DHT22;45045;45.440;9.178;2023-04-16T10:56:38;21.30;73.90
32400;DHT22;45045;45.440;9.178;2023-04-16T10:59:05;21.30;73.10
32400;DHT22;45045;45.440;9.178;2023-04-16T11:01:31;21.30;72.80
32400;DHT22;45045;45.440;9.178;2023-04-16T11:03:58;21.40;74.20
32400;DHT22;45045;45.440;9.178;2023-04-16T11:06:24;21.50;72.00
32400;DHT22;45045;45.440;9.178;2023-04-16T11:08:51;21.50;71.20
32400;DHT22;45045;45.440;9.178;2023-04-16T11:11:16;21.50;72.20
32400;DHT22;45045;45.440;9.178;2023-04-16T11:13:42;21.40;71.50
32400;DHT22;45045;45.440;9.178;2023-04-16T11:16:09;21.50;70.40
32400;DHT22;45045;45.440;9.178;2023-04-16T11:18:35;21.60;70.80
32400;DHT22;45045;45.440;9.178;2023-04-16T11:21:00;21.70;70.80
32400;DHT22;45045;45.440;9.178;2023-04-16T11:23:26;21.70;71.00
32400;DHT22;45045;45.440;9.178;2023-04-16T11:25:51;21.90;70.30
32400;DHT22;45045;45.440;9.178;2023-04-16T11:28:33;22.00;68.80
32400;DHT22;45045;45.440;9.178;2023-04-16T11:30:59;22.10;67.50
32400;DHT22;45045;45.440;9.178;2023-04-16T11:33:33;22.10;70.20
32400;DHT22;45045;45.440;9.178;2023-04-16T11:35:58;22.10;66.50
32400;DHT22;45045;45.440;9.178;2023-04-16T11:38:35;22.20;66.30
32400;DHT22;45045;45.440;9.178;2023-04-16T11:41:00;22.30;66.60
32400;DHT22;45045;45.440;9.178;2023-04-16T11:43:26;22.30;66.20
32400;DHT22;45045;45.440;9.178;2023-04-16T11:48:20;22.20;66.50
32400;DHT22;45045;45.440;9.178;2023-04-16T11:50:46;22.20;66.30
32400;DHT22;45045;45.440;9.178;2023-04-16T11:53:18;22.10;65.90
32400;DHT22;45045;45.440;9.178;2023-04-16T11:55:44;22.20;65.60
32400;DHT22;45045;45.440;9.178;2023-04-16T11:58:10;22.30;66.40
32400;DHT22;45045;45.440;9.178;2023-04-16T12:00:36;22.50;65.00
32400;DHT22;45045;45.440;9.178;2023-04-16T12:03:01;22.50;65.10
32400;DHT22;45045;45.440;9.178;2023-04-16T12:05:31;22.60;65.20
32400;DHT22;45045;45.440;9.178;2023-04-16T12:07:57;22.60;64.20
32400;DHT22;45045;45.440;9.178;2023-04-16T12:10:23;22.50;65.30
32400;DHT22;45045;45.440;9.178;2023-04-16T12:12:48;22.50;65.30
32400;DHT22;45045;45.440;9.178;2023-04-16T12:15:14;22.50;64.50
32400;DHT22;45045;45.440;9.178;2023-04-16T12:17:39;22.60;63.10
32400;DHT22;45045;45.440;9.178;2023-04-16T12:20:09;22.60;64.10
32400;DHT22;45045;45.440;9.178;2023-04-16T12:22:35;22.70;63.30
32400;DHT22;45045;45.440;9.178;2023-04-16T12:25:02;22.80;63.50
32400;DHT22;45045;45.440;9.178;2023-04-16T12:30:10;22.90;62.70
32400;DHT22;45045;45.440;9.178;2023-04-16T12:32:36;23.00;63.30
32400;DHT22;45045;45.440;9.178;2023-04-16T12:35:02;23.00;63.20
32400;DHT22;45045;45.440;9.178;2023-04-16T12:37:28;23.20;62.70
32400;DHT22;45045;45.440;9.178;2023-04-16T12:39:53;23.10;61.90
32400;DHT22;45045;45.440;9.178;2023-04-16T12:42:20;23.10;62.60
32400;DHT22;45045;45.440;9.178;2023-04-16T12:44:46;23.10;60.90
32400;DHT22;45045;45.440;9.178;2023-04-16T12:47:11;23.20;60.00
32400;DHT22;45045;45.440;9.178;2023-04-16T12:49:37;23.10;59.00
32400;DHT22;45045;45.440;9.178;2023-04-16T12:52:02;23.00;61.10
32400;DHT22;45045;45.440;9.178;2023-04-16T12:54:28;23.00;60.30
32400;DHT22;45045;45.440;9.178;2023-04-16T12:56:55;22.90;60.10
32400;DHT22;45045;45.440;9.178;2023-04-16T12:59:21;23.00;60.30
32400;DHT22;45045;45.440;9.178;2023-04-16T13:01:46;23.00;58.90
32400;DHT22;45045;45.440;9.178;2023-04-16T13:04:12;23.10;61.20
32400;DHT22;45045;45.440;9.178;2023-04-16T13:06:37;23.10;59.30
32400;DHT22;45045;45.440;9.178;2023-04-16T13:09:03;23.00;59.90
32400;DHT22;45045;45.440;9.178;2023-04-16T13:11:29;23.10;58.50
32400;DHT22;45045;45.440;9.178;2023-04-16T13:13:54;23.10;58.40
32400;DHT22;45045;45.440;9.178;2023-04-16T13:16:20;23.10;58.90
32400;DHT22;45045;45.440;9.178;2023-04-16T13:18:45;23.30;57.10
32400;DHT22;45045;45.440;9.178;2023-04-16T13:21:11;23.30;58.00
32400;DHT22;45045;45.440;9.178;2023-04-16T13:23:36;23.30;59.90
32400;DHT22;45045;45.440;9.178;2023-04-16T13:26:02;23.50;58.90
32400;DHT22;45045;45.440;9.178;2023-04-16T13:28:27;23.70;57.60
32400;DHT22;45045;45.440;9.178;2023-04-16T13:30:53;23.60;56.70
32400;DHT22;45045;45.440;9.178;2023-04-16T13:33:19;23.70;56.50
32400;DHT22;45045;45.440;9.178;2023-04-16T13:35:45;23.70;57.30
32400;DHT22;45045;45.440;9.178;2023-04-16T13:38:11;23.60;57.00
32400;DHT22;45045;45.440;9.178;2023-04-16T13:40:36;23.70;57.30
32400;DHT22;45045;45.440;9.178;2023-04-16T13:43:02;23.50;58.50
32400;DHT22;45045;45.440;9.178;2023-04-16T13:45:27;23.60;57.30
32400;DHT22;45045;45.440;9.178;2023-04-16T13:47:53;23.50;56.90
32400;DHT22;45045;45.440;9.178;2023-04-16T13:50:20;23.50;55.40
32400;DHT22;45045;45.440;9.178;2023-04-16T13:52:46;23.50;56.20
32400;DHT22;45045;45.440;9.178;2023-04-16T13:55:11;23.50;54.70
32400;DHT22;45045;45.440;9.178;2023-04-16T13:57:38;23.50;54.90
32400;DHT22;45045;45.440;9.178;2023-04-16T14:00:05;23.60;55.10
32400;DHT22;45045;45.440;9.178;2023-04-16T14:02:33;23.60;55.30
32400;DHT22;45045;45.440;9.178;2023-04-16T14:04:59;23.70;54.50
32400;DHT22;45045;45.440;9.178;2023-04-16T14:07:25;23.70;56.20
32400;DHT22;45045;45.440;9.178;2023-04-16T14:09:54;23.60;55.40
32400;DHT22;45045;45.440;9.178;2023-04-16T14:12:20;23.60;54.70
32400;DHT22;45045;45.440;9.178;2023-04-16T14:14:45;23.90;55.80
32400;DHT22;45045;45.440;9.178;2023-04-16T14:17:11;23.80;55.50
32400;DHT22;45045;45.440;9.178;2023-04-16T14:19:36;23.80;55.20
32400;DHT22;45045;45.440;9.178;2023-04-16T14:22:02;23.80;54.90
32400;DHT22;45045;45.440;9.178;2023-04-16T14:24:27;23.70;55.10
32400;DHT22;45045;45.440;9.178;2023-04-16T14:26:53;23.80;55.30
32400;DHT22;45045;45.440;9.178;2023-04-16T14:29:18;23.80;53.40
32400;DHT22;45045;45.440;9.178;2023-04-16T14:31:44;23.90;54.30
32400;DHT22;45045;45.440;9.178;2023-04-16T14:34:09;23.90;52.90
32400;DHT22;45045;45.440;9.178;2023-04-16T14:36:35;23.90;53.40
32400;DHT22;45045;45.440;9.178;2023-04-16T14:39:01;23.80;53.00
32400;DHT22;45045;45.440;9.178;2023-04-16T14:41:26;23.80;53.70
32400;DHT22;45045;45.440;9.178;2023-04-16T14:43:52;23.80;53.70
32400;DHT22;45045;45.440;9.178;2023-04-16T14:46:17;23.70;53.90
32400;DHT22;45045;45.440;9.178;2023-04-16T14:48:43;23.70;53.40
32400;DHT22;45045;45.440;9.178;2023-04-16T14:51:09;23.70;52.50
32400;DHT22;45045;45.440;9.178;2023-04-16T14:53:37;23.70;53.10
32400;DHT22;45045;45.440;9.178;2023-04-16T14:56:03;23.60;54.50
32400;DHT22;45045;45.440;9.178;2023-04-16T14:58:30;23.80;53.90
32400;DHT22;45045;45.440;9.178;2023-04-16T15:00:58;23.70;52.30
32400;DHT22;45045;45.440;9.178;2023-04-16T15:03:24;23.70;53.30
32400;DHT22;45045;45.440;9.178;2023-04-16T15:05:50;23.80;52.30
32400;DHT22;45045;45.440;9.178;2023-04-16T15:08:20;23.70;51.50
32400;DHT22;45045;45.440;9.178;2023-04-16T15:10:45;23.70;52.50
32400;DHT22;45045;45.440;9.178;2023-04-16T15:13:11;23.70;51.40
32400;DHT22;45045;45.440;9.178;2023-04-16T15:15:36;23.70;52.10
32400;DHT22;45045;45.440;9.178;2023-04-16T15:18:02;23.70;51.50
32400;DHT22;45045;45.440;9.178;2023-04-16T15:20:28;23.70;52.50
32400;DHT22;45045;45.440;9.178;2023-04-16T15:22:53;23.60;52.30
32400;DHT22;45045;45.440;9.178;2023-04-16T15:25:19;23.80;51.80
32400;DHT22;45045;45.440;9.178;2023-04-16T15:27:44;23.90;52.60
32400;DHT22;45045;45.440;9.178;2023-04-16T15:30:11;23.90;52.40